Time;durP1;ratioP1;P1;durP2;ratioP2;P2;SDS_P1;SDS_P2;PMS_P1;PMS_P2;Temp;Humidity;BMP_temperature;BMP_pressure;BME280_temperature;BME280_humidity;BME280_pressure;Samples;Min_cycle;Max_cycle;Signal;HPM_P1;HPM_P2
2021/12/27 00:00:48;;;;;;;17.17;11.23;;;;;;;;;;4930836;29;20691;-80
2021/12/27 00:03:15;;;;;;;15.57;9.33;;;;;;;;;;4935598;29;20302;-80
2021/12/27 00:05:43;;;;;;;12.30;9.37;;;;;;;;;;4935851;29;20285;-80
2021/12/27 00:08:10;;;;;;;9.53;8.53;;;;;;;;;;4936057;29;20281;-80
2021/12/27 00:10:37;;;;;;;161.43;83.50;;;;;;;;;;4936028;29;20249;-80
2021/12/27 00:13:08;;;;;;;179.37;90.13;;;;;;;;;;4937162;29;20233;-80
2021/12/27 00:15:35;;;;;;;50.37;28.20;;;;;;;;;;4936240;28;20585;-80
2021/12/27 00:18:02;;;;;;;12.47;10.10;;;;;;;;;;4936036;29;20264;-79
2021/12/27 00:20:32;;;;;;;13.73;11.83;;;;;;;;;;4935855;29;20199;-79
2021/12/27 00:22:59;;;;;;;10.37;8.90;;;;;;;;;;4936090;29;20811;-79
2021/12/27 00:25:29;;;;;;;9.13;7.93;;;;;;;;;;4936329;29;20241;-79
2021/12/27 00:27:58;;;;;;;10.33;7.83;;;;;;;;;;4935117;29;20186;-80
2021/12/27 00:30:26;;;;;;;10.17;8.13;;;;;;;;;;4935147;29;20248;-81
2021/12/27 00:32:54;;;;;;;8.37;7.57;;;;;;;;;;4935202;29;20234;-80
2021/12/27 00:35:22;;;;;;;8.67;7.33;;;;;;;;;;4934879;29;20293;-80
2021/12/27 00:37:49;;;;;;;9.57;7.97;;;;;;;;;;4937916;29;20670;-79
2021/12/27 00:40:17;;;;;;;9.73;7.83;;;;;;;;;;4941688;29;20200;-79
2021/12/27 00:42:44;;;;;;;10.10;7.93;;;;;;;;;;4920902;29;20230;-79
2021/12/27 00:45:14;;;;;;;9.60;7.43;;;;;;;;;;4934890;29;20293;-79
2021/12/27 00:47:42;;;;;;;10.50;8.70;;;;;;;;;;4927098;29;20675;-79
2021/12/27 00:50:11;;;;;;;9.33;8.33;;;;;;;;;;4916099;29;20243;-79
2021/12/27 00:52:38;;;;;;;9.50;8.50;;;;;;;;;;4915854;29;20203;-79
2021/12/27 00:55:06;;;;;;;8.80;7.93;;;;;;;;;;4916992;29;20207;-79
2021/12/27 00:57:34;;;;;;;9.70;8.03;;;;;;;;;;4934673;29;20686;-80
2021/12/27 01:00:01;;;;;;;10.90;7.77;;;;;;;;;;4934867;29;20655;-79
2021/12/27 01:02:30;;;;;;;32.93;21.83;;;;;;;;;;4936887;29;20241;-79
2021/12/27 01:04:58;;;;;;;18.37;12.40;;;;;;;;;;4953783;28;20233;-79
2021/12/27 01:07:26;;;;;;;8.47;7.57;;;;;;;;;;4947987;29;20217;-79
2021/12/27 01:10:05;;;;;;;9.67;7.60;;;;;;;;;;4938056;29;20248;-80
2021/12/27 01:12:46;;;;;;;8.37;7.40;;;;;;;;;;4938498;29;20205;-80
2021/12/27 01:15:33;;;;;;;15.53;10.47;;;;;;;;;;4938464;29;20275;-79
2021/12/27 01:18:01;;;;;;;18.70;13.33;;;;;;;;;;4938251;28;20276;-79
2021/12/27 01:20:29;;;;;;;11.00;9.80;;;;;;;;;;4956211;29;20718;-80
2021/12/27 01:22:57;;;;;;;10.23;8.47;;;;;;;;;;4957312;29;20328;-79
2021/12/27 01:25:26;;;;;;;13.17;10.90;;;;;;;;;;4957576;28;20212;-80
2021/12/27 01:27:53;;;;;;;10.70;9.60;;;;;;;;;;4957437;28;20206;-79
2021/12/27 01:30:22;;;;;;;10.37;8.77;;;;;;;;;;4955418;28;20283;-80
2021/12/27 01:32:52;;;;;;;14.20;11.20;;;;;;;;;;4938611;29;20214;-80
2021/12/27 01:35:21;;;;;;;8.70;7.73;;;;;;;;;;4938244;29;20198;-80
2021/12/27 01:37:51;;;;;;;8.90;6.80;;;;;;;;;;4938318;29;20234;-79
2021/12/27 01:40:20;;;;;;;8.13;7.30;;;;;;;;;;4938119;29;20203;-80
2021/12/27 01:43:02;;;;;;;8.20;7.27;;;;;;;;;;4937939;29;20281;-80
2021/12/27 01:45:29;;;;;;;9.80;8.87;;;;;;;;;;4938328;29;20393;-80
2021/12/27 01:47:56;;;;;;;10.27;7.23;;;;;;;;;;4937865;29;20202;-80
2021/12/27 01:50:24;;;;;;;9.47;7.13;;;;;;;;;;4937926;29;20202;-80
2021/12/27 01:52:53;;;;;;;8.43;7.50;;;;;;;;;;4937641;29;20250;-80
2021/12/27 01:55:20;;;;;;;8.43;7.53;;;;;;;;;;4937954;29;20202;-80
2021/12/27 01:57:48;;;;;;;17.47;10.77;;;;;;;;;;4937877;29;20210;-79
2021/12/27 02:00:16;;;;;;;7.67;6.90;;;;;;;;;;4937680;29;20249;-79
2021/12/27 02:02:45;;;;;;;7.43;6.67;;;;;;;;;;4936685;29;20216;-80
2021/12/27 02:05:12;;;;;;;8.10;6.57;;;;;;;;;;4918782;29;20243;-80
2021/12/27 02:07:40;;;;;;;13.13;8.60;;;;;;;;;;4918442;29;20290;-80
2021/12/27 02:10:10;;;;;;;12.63;9.87;;;;;;;;;;4918470;29;20204;-80
2021/12/27 02:12:38;;;;;;;11.03;9.93;;;;;;;;;;4918516;29;20641;-80
2021/12/27 02:15:09;;;;;;;12.10;10.17;;;;;;;;;;4942993;29;20209;-80
2021/12/27 02:17:37;;;;;;;12.37;9.23;;;;;;;;;;4946432;28;20217;-80
2021/12/27 02:20:07;;;;;;;12.17;9.40;;;;;;;;;;4950346;28;20205;-80
2021/12/27 02:22:36;;;;;;;12.83;9.63;;;;;;;;;;4938052;29;20631;-80
2021/12/27 02:25:08;;;;;;;12.00;9.80;;;;;;;;;;4937069;29;20237;-80
2021/12/27 02:27:36;;;;;;;13.60;10.63;;;;;;;;;;4937396;29;20199;-80
2021/12/27 02:30:06;;;;;;;16.07;11.70;;;;;;;;;;4937339;29;20203;-80
2021/12/27 02:32:33;;;;;;;11.47;10.00;;;;;;;;;;4936959;29;20207;-80
2021/12/27 02:35:00;;;;;;;13.57;9.60;;;;;;;;;;4937007;29;20212;-80
2021/12/27 02:37:29;;;;;;;11.40;8.57;;;;;;;;;;4937157;29;20633;-80
2021/12/27 02:39:57;;;;;;;10.10;7.83;;;;;;;;;;4937185;29;20241;-80
2021/12/27 02:42:24;;;;;;;10.97;8.27;;;;;;;;;;4936995;29;20637;-80
2021/12/27 02:44:51;;;;;;;11.60;9.17;;;;;;;;;;4936863;29;20269;-80
2021/12/27 02:47:18;;;;;;;12.03;7.80;;;;;;;;;;4936993;29;20790;-79
2021/12/27 02:49:46;;;;;;;9.70;7.20;;;;;;;;;;4937018;29;20203;-78
2021/12/27 02:52:13;;;;;;;10.40;7.27;;;;;;;;;;4936725;29;20675;-79
2021/12/27 02:54:43;;;;;;;12.50;9.97;;;;;;;;;;4936801;29;20637;-79
2021/12/27 02:57:11;;;;;;;7.57;6.67;;;;;;;;;;4951784;29;20742;-80
2021/12/27 02:59:38;;;;;;;9.47;6.70;;;;;;;;;;4955766;29;20252;-80
2021/12/27 03:02:05;;;;;;;6.93;6.23;;;;;;;;;;4955547;29;20575;-79
2021/12/27 03:04:37;;;;;;;6.80;6.13;;;;;;;;;;4955653;29;20230;-80
2021/12/27 03:07:04;;;;;;;6.13;5.50;;;;;;;;;;4955908;28;20201;-80
2021/12/27 03:09:32;;;;;;;7.97;6.00;;;;;;;;;;4955660;29;20691;-79
2021/12/27 03:12:00;;;;;;;8.50;6.03;;;;;;;;;;4955551;29;20285;-80
2021/12/27 03:14:28;;;;;;;6.53;5.87;;;;;;;;;;4938875;29;20206;-80
2021/12/27 03:16:55;;;;;;;7.57;6.77;;;;;;;;;;4936425;29;20297;-80
2021/12/27 03:19:22;;;;;;;11.10;7.43;;;;;;;;;;4936176;29;20202;-80
2021/12/27 03:21:49;;;;;;;8.40;7.40;;;;;;;;;;4936497;29;20244;-79
2021/12/27 03:24:17;;;;;;;8.90;7.30;;;;;;;;;;4936040;29;20735;-81
2021/12/27 03:26:44;;;;;;;9.17;7.73;;;;;;;;;;4935977;29;20254;-80
2021/12/27 03:29:13;;;;;;;10.23;7.87;;;;;;;;;;4935927;29;20206;-80
2021/12/27 03:31:40;;;;;;;10.00;8.23;;;;;;;;;;4935865;29;20191;-80
2021/12/27 03:34:07;;;;;;;9.90;8.47;;;;;;;;;;4936118;29;20254;-79
2021/12/27 03:36:38;;;;;;;10.40;9.03;;;;;;;;;;4936008;29;20199;-79
2021/12/27 03:39:07;;;;;;;12.00;8.93;;;;;;;;;;4936242;29;20194;-80
2021/12/27 03:41:35;;;;;;;13.67;10.97;;;;;;;;;;4946323;29;20202;-79
2021/12/27 03:44:04;;;;;;;16.60;14.23;;;;;;;;;;4955036;29;20268;-79
2021/12/27 03:46:33;;;;;;;14.67;11.97;;;;;;;;;;4955061;29;20233;-79
2021/12/27 03:49:00;;;;;;;11.17;9.93;;;;;;;;;;4954733;29;20208;-80
2021/12/27 03:51:27;;;;;;;8.97;7.63;;;;;;;;;;4954676;29;20201;-80
2021/12/27 03:53:55;;;;;;;15.30;13.70;;;;;;;;;;4954663;29;20209;-80
2021/12/27 03:56:24;;;;;;;16.83;15.13;;;;;;;;;;4954939;29;20205;-79
2021/12/27 03:58:57;;;;;;;11.60;10.30;;;;;;;;;;4955066;28;20276;-79
2021/12/27 04:01:26;;;;;;;14.57;11.17;;;;;;;;;;4954721;28;20194;-80
2021/12/27 04:03:57;;;;;;;15.33;11.97;;;;;;;;;;4954414;29;20229;-79
2021/12/27 04:06:26;;;;;;;25.03;16.57;;;;;;;;;;4954621;29;20190;-79
2021/12/27 04:08:53;;;;;;;14.50;12.77;;;;;;;;;;4954626;28;20209;-80
2021/12/27 04:11:21;;;;;;;12.10;10.40;;;;;;;;;;4954430;29;20754;-79
2021/12/27 04:13:48;;;;;;;11.53;10.20;;;;;;;;;;4954712;29;20261;-80
2021/12/27 04:16:15;;;;;;;11.07;9.47;;;;;;;;;;4936236;29;20206;-79
2021/12/27 04:18:42;;;;;;;8.87;7.97;;;;;;;;;;4935405;29;20225;-80
2021/12/27 04:21:11;;;;;;;9.23;8.37;;;;;;;;;;4934977;29;20198;-79
2021/12/27 04:23:39;;;;;;;9.47;8.47;;;;;;;;;;4953737;29;20201;-79
2021/12/27 04:26:06;;;;;;;22.53;19.60;;;;;;;;;;4953902;29;20201;-79
2021/12/27 04:28:33;;;;;;;30.80;19.90;;;;;;;;;;4953442;29;20280;-79
2021/12/27 04:31:01;;;;;;;13.30;9.57;;;;;;;;;;4935031;29;20206;-79
2021/12/27 04:33:28;;;;;;;9.50;8.50;;;;;;;;;;4934899;29;20655;-79
2021/12/27 04:35:55;;;;;;;18.23;13.43;;;;;;;;;;4934874;29;20285;-80
2021/12/27 04:38:24;;;;;;;26.87;17.37;;;;;;;;;;4934946;29;20202;-79
2021/12/27 04:40:53;;;;;;;18.27;12.47;;;;;;;;;;4934752;29;20695;-79
2021/12/27 04:43:23;;;;;;;12.80;9.97;;;;;;;;;;4934471;29;20230;-79
2021/12/27 04:45:51;;;;;;;16.57;12.00;;;;;;;;;;4935331;29;20234;-79
2021/12/27 04:48:20;;;;;;;15.60;10.83;;;;;;;;;;4934712;29;20202;-79
2021/12/27 04:50:47;;;;;;;12.93;10.67;;;;;;;;;;4934646;29;20690;-79
2021/12/27 04:53:15;;;;;;;10.43;8.97;;;;;;;;;;4934677;29;20202;-79
2021/12/27 04:55:45;;;;;;;8.70;7.67;;;;;;;;;;4934665;29;20579;-79
2021/12/27 04:58:16;;;;;;;11.37;10.23;;;;;;;;;;4935009;29;20198;-79
2021/12/27 05:00:44;;;;;;;13.73;11.43;;;;;;;;;;4934688;29;20190;-80
2021/12/27 05:03:11;;;;;;;13.27;11.37;;;;;;;;;;4934920;29;20573;-80
2021/12/27 05:05:42;;;;;;;11.43;10.40;;;;;;;;;;4934639;29;20250;-79
2021/12/27 05:08:09;;;;;;;15.97;14.27;;;;;;;;;;4934621;29;20195;-79
2021/12/27 05:10:36;;;;;;;53.77;47.80;;;;;;;;;;4942668;29;20201;-79
2021/12/27 05:13:05;;;;;;;28.57;25.40;;;;;;;;;;4953901;29;20284;-79
2021/12/27 05:15:33;;;;;;;14.37;12.90;;;;;;;;;;4953904;29;20293;-79
2021/12/27 05:18:00;;;;;;;18.30;15.80;;;;;;;;;;4953524;29;20289;-80
2021/12/27 05:20:28;;;;;;;12.40;11.10;;;;;;;;;;4953660;28;20256;-79
2021/12/27 05:22:55;;;;;;;13.63;11.47;;;;;;;;;;4944983;28;20230;-80
2021/12/27 05:25:23;;;;;;;14.97;12.20;;;;;;;;;;4934690;29;20634;-80
2021/12/27 05:27:50;;;;;;;11.33;10.03;;;;;;;;;;4927136;29;20211;-80
2021/12/27 05:30:19;;;;;;;11.87;9.90;;;;;;;;;;4929874;29;20220;-79
2021/12/27 05:32:46;;;;;;;50.23;28.13;;;;;;;;;;4934859;29;20648;-79
2021/12/27 05:35:14;;;;;;;44.43;28.93;;;;;;;;;;4934437;29;20258;-79
2021/12/27 05:37:42;;;;;;;20.83;16.90;;;;;;;;;;4934693;29;20573;-79
2021/12/27 05:40:14;;;;;;;15.43;12.90;;;;;;;;;;4934292;29;20581;-80
2021/12/27 05:42:41;;;;;;;13.90;10.33;;;;;;;;;;4928425;29;20303;-80
2021/12/27 05:45:09;;;;;;;21.33;18.00;;;;;;;;;;4915356;29;20227;-79
2021/12/27 05:47:38;;;;;;;23.17;20.37;;;;;;;;;;4915829;29;20226;-79
2021/12/27 05:50:07;;;;;;;21.20;18.30;;;;;;;;;;4915331;29;20258;-79
2021/12/27 05:52:34;;;;;;;29.60;22.20;;;;;;;;;;4928604;29;20198;-79
2021/12/27 05:55:02;;;;;;;28.60;23.07;;;;;;;;;;4955574;28;20193;-79
2021/12/27 05:57:29;;;;;;;20.50;18.10;;;;;;;;;;4949582;29;20691;-79
2021/12/27 05:59:57;;;;;;;40.23;29.13;;;;;;;;;;4956767;29;20727;-79
2021/12/27 06:02:24;;;;;;;23.07;19.00;;;;;;;;;;4938824;29;20238;-79
2021/12/27 06:04:53;;;;;;;27.47;20.77;;;;;;;;;;4937915;29;20706;-79
2021/12/27 06:07:20;;;;;;;23.53;20.97;;;;;;;;;;4937502;29;20597;-79
2021/12/27 06:09:47;;;;;;;15.93;14.23;;;;;;;;;;4944981;29;20205;-80
2021/12/27 06:12:14;;;;;;;17.37;14.43;;;;;;;;;;4956799;29;20220;-80
2021/12/27 06:14:42;;;;;;;12.43;11.13;;;;;;;;;;4956755;29;20233;-79
2021/12/27 06:17:09;;;;;;;16.93;13.37;;;;;;;;;;4944449;29;20210;-80
2021/12/27 06:19:37;;;;;;;24.67;20.00;;;;;;;;;;4937311;29;20206;-80
2021/12/27 06:22:05;;;;;;;18.80;16.80;;;;;;;;;;4937112;29;20328;-80
2021/12/27 06:24:33;;;;;;;21.43;19.00;;;;;;;;;;4937255;29;20307;-80
2021/12/27 06:27:00;;;;;;;21.10;18.90;;;;;;;;;;4948340;29;20666;-80
2021/12/27 06:29:27;;;;;;;16.43;14.77;;;;;;;;;;4934561;28;20284;-80
2021/12/27 06:31:54;;;;;;;16.87;15.13;;;;;;;;;;4934501;29;20211;-80
2021/12/27 06:34:22;;;;;;;15.17;13.57;;;;;;;;;;4936806;29;20662;-80
2021/12/27 06:36:49;;;;;;;18.20;14.97;;;;;;;;;;4927313;29;20195;-80
2021/12/27 06:39:18;;;;;;;16.87;13.30;;;;;;;;;;4936883;29;20249;-80
2021/12/27 06:41:45;;;;;;;20.67;15.47;;;;;;;;;;4937199;29;20213;-80
2021/12/27 06:44:12;;;;;;;15.73;12.80;;;;;;;;;;4936736;29;20595;-80
2021/12/27 06:46:40;;;;;;;18.67;13.77;;;;;;;;;;4940148;29;20198;-80
2021/12/27 06:49:07;;;;;;;15.33;13.40;;;;;;;;;;4956285;29;20579;-80
2021/12/27 06:51:34;;;;;;;14.47;12.83;;;;;;;;;;4942784;29;20664;-80
2021/12/27 06:54:01;;;;;;;23.17;17.87;;;;;;;;;;4940468;29;20202;-80
2021/12/27 06:56:30;;;;;;;29.87;22.37;;;;;;;;;;4936357;29;20256;-80
2021/12/27 06:58:59;;;;;;;65.27;44.20;;;;;;;;;;4938418;29;20205;-80
2021/12/27 07:01:26;;;;;;;58.77;46.90;;;;;;;;;;4935890;29;20202;-79
2021/12/27 07:03:53;;;;;;;58.43;44.20;;;;;;;;;;4939837;29;20202;-79
2021/12/27 07:06:22;;;;;;;39.50;34.37;;;;;;;;;;4938003;29;20309;-79
2021/12/27 07:08:49;;;;;;;33.10;26.43;;;;;;;;;;4938421;29;20195;-79
2021/12/27 07:11:16;;;;;;;23.50;20.73;;;;;;;;;;4929854;29;20207;-80
2021/12/27 07:13:45;;;;;;;27.60;23.93;;;;;;;;;;4937854;29;20199;-80
2021/12/27 07:16:12;;;;;;;23.63;18.30;;;;;;;;;;4939031;28;20210;-80
2021/12/27 07:18:39;;;;;;;29.97;22.60;;;;;;;;;;4938044;29;20202;-80
2021/12/27 07:21:07;;;;;;;25.73;22.43;;;;;;;;;;4933016;29;20206;-80
2021/12/27 07:23:34;;;;;;;39.17;32.50;;;;;;;;;;4937842;29;20186;-80
2021/12/27 07:26:01;;;;;;;45.10;35.53;;;;;;;;;;4939816;29;20218;-81
2021/12/27 07:28:28;;;;;;;62.40;46.80;;;;;;;;;;4937595;29;20195;-80
2021/12/27 07:30:57;;;;;;;42.93;33.53;;;;;;;;;;4937775;29;20718;-80
2021/12/27 07:33:25;;;;;;;46.80;37.90;;;;;;;;;;4935093;29;20199;-80
2021/12/27 07:35:52;;;;;;;56.57;43.30;;;;;;;;;;4937903;29;20262;-80
2021/12/27 07:38:19;;;;;;;44.13;34.17;;;;;;;;;;4941082;29;20679;-81
2021/12/27 07:40:47;;;;;;;46.50;35.57;;;;;;;;;;4955237;29;20202;-81
2021/12/27 07:43:14;;;;;;;51.50;38.43;;;;;;;;;;4955187;29;20198;-81
2021/12/27 07:45:41;;;;;;;54.57;40.63;;;;;;;;;;4943897;29;20258;-81
2021/12/27 07:48:10;;;;;;;34.13;27.53;;;;;;;;;;4935900;29;20282;-81
2021/12/27 07:50:39;;;;;;;34.80;23.83;;;;;;;;;;4935523;29;20279;-78
2021/12/27 07:53:06;;;;;;;26.50;20.13;;;;;;;;;;4950793;29;20285;-78
2021/12/27 07:55:34;;;;;;;26.23;17.47;;;;;;;;;;4954665;29;20685;-78
2021/12/27 07:58:02;;;;;;;24.87;19.90;;;;;;;;;;4947222;29;20203;-78
2021/12/27 08:00:29;;;;;;;25.47;19.00;;;;;;;;;;4935141;29;20203;-78
2021/12/27 08:02:56;;;;;;;28.17;23.40;;;;;;;;;;4935340;29;20195;-78
2021/12/27 08:05:25;;;;;;;31.07;23.80;;;;;;;;;;4935287;29;20218;-78
2021/12/27 08:07:52;;;;;;;39.10;28.90;;;;;;;;;;4935736;29;20210;-79
2021/12/27 08:10:20;;;;;;;33.80;27.00;;;;;;;;;;4933178;29;20214;-79
2021/12/27 08:12:47;;;;;;;31.43;27.93;;;;;;;;;;4934530;29;20206;-80
2021/12/27 08:15:14;;;;;;;32.50;28.47;;;;;;;;;;4935556;29;20203;-80
2021/12/27 08:17:42;;;;;;;30.10;26.20;;;;;;;;;;4934700;29;20198;-80
2021/12/27 08:20:10;;;;;;;32.47;26.27;;;;;;;;;;4935511;29;20294;-81
2021/12/27 08:22:39;;;;;;;60.50;43.80;;;;;;;;;;4935540;29;20225;-79
2021/12/27 08:25:07;;;;;;;43.43;29.03;;;;;;;;;;4932598;29;20221;-80
2021/12/27 08:27:35;;;;;;;38.13;29.63;;;;;;;;;;4935440;29;20206;-79
2021/12/27 08:30:05;;;;;;;50.33;40.70;;;;;;;;;;4935702;29;20202;-79
2021/12/27 08:32:32;;;;;;;18.60;16.60;;;;;;;;;;4936376;29;20672;-80
2021/12/27 08:35:01;;;;;;;60.80;47.90;;;;;;;;;;4935831;29;20194;-80
2021/12/27 08:37:29;;;;;;;26.80;19.93;;;;;;;;;;4935422;29;20206;-81
2021/12/27 08:39:58;;;;;;;23.50;17.33;;;;;;;;;;4937657;29;20217;-81
2021/12/27 08:42:26;;;;;;;24.57;17.17;;;;;;;;;;4935100;29;20205;-81
2021/12/27 08:44:53;;;;;;;26.33;17.67;;;;;;;;;;4935301;29;20226;-81
2021/12/27 08:47:20;;;;;;;71.37;53.93;;;;;;;;;;4933739;29;20195;-80
2021/12/27 08:49:48;;;;;;;82.53;62.27;;;;;;;;;;4934463;29;20597;-81
2021/12/27 08:52:15;;;;;;;85.83;60.33;;;;;;;;;;4934436;29;20206;-80
2021/12/27 08:54:42;;;;;;;116.17;89.93;;;;;;;;;;4934763;29;20326;-81
2021/12/27 08:57:11;;;;;;;66.73;48.33;;;;;;;;;;4934965;29;20206;-80
2021/12/27 08:59:38;;;;;;;109.57;65.17;;;;;;;;;;4934248;29;20198;-80
2021/12/27 09:02:06;;;;;;;167.27;103.07;;;;;;;;;;4944960;29;20205;-80
2021/12/27 09:04:34;;;;;;;65.33;51.57;;;;;;;;;;4952265;29;20237;-80
2021/12/27 09:07:01;;;;;;;76.83;54.17;;;;;;;;;;4952376;29;20226;-81
2021/12/27 09:09:29;;;;;;;50.57;33.47;;;;;;;;;;4953713;28;20205;-81
2021/12/27 09:11:57;;;;;;;34.17;24.23;;;;;;;;;;4953888;29;20265;-80
2021/12/27 09:14:26;;;;;;;25.63;20.67;;;;;;;;;;4953700;29;20208;-80
2021/12/27 09:16:53;;;;;;;19.53;14.73;;;;;;;;;;4953621;29;20273;-80
2021/12/27 09:19:20;;;;;;;20.87;15.73;;;;;;;;;;4953975;29;20229;-80
2021/12/27 09:21:47;;;;;;;25.07;18.53;;;;;;;;;;4953610;29;20237;-80
2021/12/27 09:24:15;;;;;;;33.07;21.80;;;;;;;;;;4953577;29;20300;-80
2021/12/27 09:26:42;;;;;;;21.90;15.00;;;;;;;;;;4953475;29;20783;-81
2021/12/27 09:29:10;;;;;;;23.67;17.93;;;;;;;;;;4954184;28;20747;-80
2021/12/27 09:31:38;;;;;;;17.87;13.13;;;;;;;;;;4957270;29;20198;-80
2021/12/27 09:34:06;;;;;;;22.37;15.67;;;;;;;;;;4957316;28;20221;-80
2021/12/27 09:36:33;;;;;;;12.97;9.47;;;;;;;;;;4957466;29;20284;-80
2021/12/27 09:39:01;;;;;;;16.37;12.53;;;;;;;;;;4957178;29;20202;-80
2021/12/27 09:41:28;;;;;;;10.67;8.47;;;;;;;;;;4957096;29;20683;-81
2021/12/27 09:43:56;;;;;;;13.20;9.60;;;;;;;;;;4957124;29;20209;-81
2021/12/27 09:46:24;;;;;;;13.93;10.87;;;;;;;;;;4956972;29;20273;-80
2021/12/27 09:48:56;;;;;;;15.17;12.87;;;;;;;;;;4957035;29;20201;-81
2021/12/27 09:51:23;;;;;;;18.30;16.50;;;;;;;;;;4957250;29;20233;-81
2021/12/27 09:53:51;;;;;;;13.33;10.07;;;;;;;;;;4957338;28;20664;-80
2021/12/27 09:56:18;;;;;;;14.80;12.47;;;;;;;;;;4956827;29;20260;-80
2021/12/27 09:58:46;;;;;;;26.30;18.17;;;;;;;;;;4956830;29;20278;-81
2021/12/27 10:01:13;;;;;;;71.83;43.80;;;;;;;;;;4956727;29;20256;-81
2021/12/27 10:03:49;;;;;;;25.30;16.27;;;;;;;;;;4956890;29;20205;-80
2021/12/27 10:06:19;;;;;;;14.40;10.57;;;;;;;;;;4956639;29;20792;-80
2021/12/27 10:08:47;;;;;;;23.60;19.23;;;;;;;;;;4956747;28;20201;-80
2021/12/27 10:11:19;;;;;;;19.87;14.90;;;;;;;;;;4956636;29;20627;-80
2021/12/27 10:14:05;;;;;;;12.57;9.00;;;;;;;;;;4956536;29;20292;-80
2021/12/27 10:16:37;;;;;;;15.27;11.43;;;;;;;;;;4956643;29;20274;-80
2021/12/27 10:19:07;;;;;;;20.07;15.27;;;;;;;;;;4956738;29;20276;-80
2021/12/27 10:21:36;;;;;;;27.80;21.67;;;;;;;;;;4956378;29;20316;-80
2021/12/27 10:24:05;;;;;;;50.97;35.87;;;;;;;;;;4956367;29;20206;-81
2021/12/27 10:26:34;;;;;;;24.03;15.47;;;;;;;;;;4956390;29;20718;-81
2021/12/27 10:29:23;;;;;;;28.10;19.20;;;;;;;;;;4956649;28;20293;-81
2021/12/27 10:32:04;;;;;;;11.17;8.60;;;;;;;;;;4950942;29;20213;-81
2021/12/27 10:34:33;;;;;;;12.47;8.67;;;;;;;;;;4956302;29;20617;-81
2021/12/27 10:37:12;;;;;;;25.43;17.63;;;;;;;;;;4956409;29;20284;-81
2021/12/27 10:39:47;;;;;;;26.93;15.97;;;;;;;;;;4956165;29;20194;-80
2021/12/27 10:42:16;;;;;;;15.13;12.70;;;;;;;;;;4955075;28;20225;-80
2021/12/27 10:44:43;;;;;;;15.27;12.03;;;;;;;;;;4956013;29;20697;-80
2021/12/27 10:47:29;;;;;;;13.97;11.53;;;;;;;;;;4956263;29;20230;-80
2021/12/27 10:50:02;;;;;;;11.23;10.13;;;;;;;;;;4956631;28;20205;-81
2021/12/27 10:52:53;;;;;;;11.83;9.33;;;;;;;;;;4956329;29;20194;-80
2021/12/27 10:55:22;;;;;;;14.03;9.10;;;;;;;;;;4956210;29;20645;-80
2021/12/27 10:57:52;;;;;;;14.40;12.50;;;;;;;;;;4955741;29;20208;-81
2021/12/27 11:00:30;;;;;;;21.53;17.33;;;;;;;;;;4955713;29;20198;-80
2021/12/27 11:03:02;;;;;;;12.30;9.83;;;;;;;;;;4956008;29;20186;-80
2021/12/27 11:05:30;;;;;;;19.17;13.13;;;;;;;;;;4955669;28;20201;-81
2021/12/27 11:08:03;;;;;;;7.67;6.70;;;;;;;;;;4955835;29;20201;-81
2021/12/27 11:10:32;;;;;;;10.60;7.67;;;;;;;;;;4955840;29;20734;-81
2021/12/27 11:13:00;;;;;;;10.77;8.23;;;;;;;;;;4955764;29;20212;-81
2021/12/27 11:15:29;;;;;;;9.83;8.30;;;;;;;;;;4955488;28;20198;-81
2021/12/27 11:17:57;;;;;;;15.80;12.03;;;;;;;;;;4955662;29;20257;-81
2021/12/27 11:20:25;;;;;;;15.80;11.40;;;;;;;;;;4955616;29;20206;-80
2021/12/27 11:22:54;;;;;;;12.90;10.30;;;;;;;;;;4953207;29;20323;-80
2021/12/27 11:25:28;;;;;;;10.70;8.97;;;;;;;;;;4934299;29;20208;-81
2021/12/27 11:27:56;;;;;;;19.13;12.57;;;;;;;;;;4935945;29;20780;-81
2021/12/27 11:30:25;;;;;;;29.43;23.70;;;;;;;;;;4936027;29;20298;-81
2021/12/27 11:33:12;;;;;;;15.87;13.27;;;;;;;;;;4936274;29;20657;-81
2021/12/27 11:36:03;;;;;;;16.53;13.90;;;;;;;;;;4936514;29;20636;-81
2021/12/27 11:38:32;;;;;;;12.37;8.80;;;;;;;;;;4936129;29;20262;-81
2021/12/27 11:41:02;;;;;;;16.33;14.63;;;;;;;;;;4935874;29;20208;-81
2021/12/27 11:43:48;;;;;;;11.13;9.30;;;;;;;;;;4935803;29;20191;-81
2021/12/27 11:46:15;;;;;;;10.83;9.30;;;;;;;;;;4935733;29;20270;-81
2021/12/27 11:48:46;;;;;;;13.87;9.80;;;;;;;;;;4935699;29;20691;-81
2021/12/27 11:51:14;;;;;;;11.80;8.57;;;;;;;;;;4935685;29;20195;-81
2021/12/27 11:53:49;;;;;;;14.80;11.93;;;;;;;;;;4935334;29;20206;-81
2021/12/27 11:56:44;;;;;;;15.90;11.60;;;;;;;;;;4935640;29;20221;-81
2021/12/27 11:59:42;;;;;;;32.27;21.73;;;;;;;;;;4934945;29;20190;-82
2021/12/27 12:02:26;;;;;;;30.50;20.37;;;;;;;;;;4908035;29;20205;-82
2021/12/27 12:04:56;;;;;;;58.03;36.90;;;;;;;;;;4941517;29;20588;-81
2021/12/27 12:07:50;;;;;;;97.87;60.57;;;;;;;;;;4932655;29;20249;-81
2021/12/27 12:10:19;;;;;;;19.67;13.47;;;;;;;;;;4922467;29;20204;-81
2021/12/27 12:13:20;;;;;;;16.37;12.87;;;;;;;;;;4930077;29;20279;-81
2021/12/27 12:16:01;;;;;;;18.47;13.47;;;;;;;;;;4932649;29;20234;-81
2021/12/27 12:18:29;;;;;;;21.50;17.40;;;;;;;;;;4932980;29;20229;-82
2021/12/27 12:20:57;;;;;;;19.47;16.30;;;;;;;;;;4935026;29;20651;-81
2021/12/27 12:23:24;;;;;;;15.77;11.50;;;;;;;;;;4932235;29;20274;-81
2021/12/27 12:25:59;;;;;;;18.70;16.37;;;;;;;;;;4934627;29;20260;-82
2021/12/27 12:28:29;;;;;;;20.73;16.90;;;;;;;;;;4929920;29;20249;-82
2021/12/27 12:30:56;;;;;;;20.63;15.07;;;;;;;;;;4934626;29;20303;-81
2021/12/27 12:33:25;;;;;;;30.30;22.10;;;;;;;;;;4932224;29;20683;-81
2021/12/27 12:35:57;;;;;;;22.23;17.30;;;;;;;;;;4934977;29;20749;-81
2021/12/27 12:38:25;;;;;;;24.60;20.17;;;;;;;;;;4932749;29;20191;-81
2021/12/27 12:41:13;;;;;;;27.97;19.57;;;;;;;;;;4934659;29;20751;-81
2021/12/27 12:43:45;;;;;;;73.57;39.60;;;;;;;;;;4926911;29;20290;-81
2021/12/27 12:46:18;;;;;;;45.60;27.47;;;;;;;;;;4934868;29;20194;-81
2021/12/27 12:48:46;;;;;;;45.07;34.27;;;;;;;;;;4932314;29;20711;-81
2021/12/27 12:51:13;;;;;;;24.53;19.87;;;;;;;;;;4934574;29;20199;-81
2021/12/27 12:53:41;;;;;;;28.07;19.30;;;;;;;;;;4931742;29;20234;-81
2021/12/27 12:56:08;;;;;;;19.23;15.93;;;;;;;;;;4933219;29;20607;-81
2021/12/27 12:58:37;;;;;;;25.63;17.90;;;;;;;;;;4917304;29;20294;-81
2021/12/27 13:01:08;;;;;;;15.47;12.60;;;;;;;;;;4915569;29;20615;-81
2021/12/27 13:03:35;;;;;;;13.17;11.80;;;;;;;;;;4915665;29;20665;-81
2021/12/27 13:06:04;;;;;;;33.80;25.37;;;;;;;;;;4948873;29;20236;-81
2021/12/27 13:08:32;;;;;;;16.77;11.53;;;;;;;;;;4938759;29;20206;-81
2021/12/27 13:11:02;;;;;;;18.27;14.03;;;;;;;;;;4936778;29;20253;-81
2021/12/27 13:13:31;;;;;;;18.90;14.93;;;;;;;;;;4926734;29;20213;-82
2021/12/27 13:15:59;;;;;;;33.80;24.17;;;;;;;;;;4928154;29;20214;-81
2021/12/27 13:18:30;;;;;;;51.83;29.60;;;;;;;;;;4938424;29;20198;-82
2021/12/27 13:20:58;;;;;;;67.63;35.80;;;;;;;;;;4946514;29;20241;-81
2021/12/27 13:23:27;;;;;;;23.77;15.07;;;;;;;;;;4957309;29;20724;-81
2021/12/27 13:25:56;;;;;;;9.83;8.27;;;;;;;;;;4946031;29;20246;-81
2021/12/27 13:28:25;;;;;;;18.13;12.73;;;;;;;;;;4938241;29;20325;-81
2021/12/27 13:30:55;;;;;;;29.90;18.90;;;;;;;;;;4938132;29;20204;-81
2021/12/27 13:33:24;;;;;;;37.43;24.63;;;;;;;;;;4938518;29;20253;-81
2021/12/27 13:35:53;;;;;;;29.70;21.97;;;;;;;;;;4938212;29;20668;-81
2021/12/27 13:38:23;;;;;;;39.20;26.10;;;;;;;;;;4938036;29;20194;-81
2021/12/27 13:40:53;;;;;;;39.90;24.10;;;;;;;;;;4937819;29;20242;-81
2021/12/27 13:43:20;;;;;;;45.33;30.10;;;;;;;;;;4937964;29;20203;-81
2021/12/27 13:45:48;;;;;;;19.23;13.10;;;;;;;;;;4938540;29;20205;-81
2021/12/27 13:48:15;;;;;;;44.53;29.50;;;;;;;;;;4957198;29;20304;-81
2021/12/27 13:50:44;;;;;;;32.37;24.27;;;;;;;;;;4957149;29;20202;-81
2021/12/27 13:53:15;;;;;;;26.53;21.13;;;;;;;;;;4951999;29;20209;-81
2021/12/27 13:55:44;;;;;;;23.93;18.57;;;;;;;;;;4937084;29;20217;-80
2021/12/27 13:58:17;;;;;;;31.27;22.47;;;;;;;;;;4934529;29;20250;-80
2021/12/27 14:00:44;;;;;;;16.37;12.93;;;;;;;;;;4937069;29;20332;-80
2021/12/27 14:03:29;;;;;;;23.83;16.17;;;;;;;;;;4934605;29;20277;-80
2021/12/27 14:05:58;;;;;;;18.10;12.17;;;;;;;;;;4935605;29;20676;-81
2021/12/27 14:08:29;;;;;;;22.93;16.93;;;;;;;;;;4937210;29;20300;-80
2021/12/27 14:11:02;;;;;;;15.93;12.47;;;;;;;;;;4935141;29;20625;-80
2021/12/27 14:13:52;;;;;;;102.47;53.03;;;;;;;;;;4936984;29;20198;-80
2021/12/27 14:16:24;;;;;;;60.30;35.37;;;;;;;;;;4935518;29;20206;-80
2021/12/27 14:19:04;;;;;;;22.70;14.23;;;;;;;;;;4932812;29;21036;-80
2021/12/27 14:21:35;;;;;;;47.87;31.60;;;;;;;;;;4934198;29;20198;-80
2021/12/27 14:24:04;;;;;;;21.17;16.90;;;;;;;;;;4935681;29;20230;-80
2021/12/27 14:26:32;;;;;;;26.80;17.03;;;;;;;;;;4934866;29;20204;-80
2021/12/27 14:29:15;;;;;;;16.17;11.77;;;;;;;;;;4936694;29;20198;-80
2021/12/27 14:31:47;;;;;;;18.13;14.37;;;;;;;;;;4935765;29;20578;-81
2021/12/27 14:34:14;;;;;;;20.07;15.47;;;;;;;;;;4932082;29;20674;-81